createdAt,value
2017-09-26T00:02:26.803Z,9.60
2017-09-26T00:04:54.384Z,9.60
2017-09-26T00:07:22.190Z,9.50
2017-09-26T00:09:49.782Z,9.50
2017-09-26T00:12:18.153Z,9.50
2017-09-26T00:14:46.498Z,9.40
2017-09-26T00:17:14.383Z,9.40
2017-09-26T00:19:42.755Z,9.40
2017-09-26T00:22:11.114Z,9.40
2017-09-26T00:24:38.819Z,9.40
2017-09-26T00:27:07.152Z,9.30
2017-09-26T00:29:34.754Z,9.20
2017-09-26T00:32:03.101Z,9.20
2017-09-26T00:34:30.960Z,9.20
2017-09-26T00:36:58.556Z,9.20
2017-09-26T00:39:27.512Z,9.10
2017-09-26T00:41:55.108Z,9.10
2017-09-26T00:44:23.441Z,9.10
2017-09-26T00:46:51.000Z,9.10
2017-09-26T00:49:18.548Z,9.10
2017-09-26T00:51:46.394Z,9.10
2017-09-26T00:54:13.933Z,9.10
2017-09-26T00:56:42.261Z,9.00
2017-09-26T00:59:09.844Z,8.90
2017-09-26T01:01:37.403Z,8.90
2017-09-26T01:04:17.296Z,8.90
2017-09-26T01:06:54.744Z,8.90
2017-09-26T01:09:22.300Z,8.90
2017-09-26T01:11:49.835Z,8.90
2017-09-26T01:14:17.664Z,8.90
2017-09-26T01:16:45.242Z,8.90
2017-09-26T01:19:12.797Z,8.90
2017-09-26T01:21:40.393Z,8.80
2017-09-26T01:24:07.964Z,8.80
2017-09-26T01:26:35.554Z,8.80
2017-09-26T01:29:03.230Z,8.80
2017-09-26T01:31:31.117Z,8.80
2017-09-26T01:33:58.698Z,8.80
2017-09-26T01:36:26.304Z,8.70
2017-09-26T01:38:54.044Z,8.70
2017-09-26T01:41:21.630Z,8.70
2017-09-26T01:43:49.245Z,8.70
2017-09-26T01:46:16.883Z,8.60
2017-09-26T01:48:44.763Z,8.60
2017-09-26T01:51:12.354Z,8.60
2017-09-26T01:53:40.789Z,8.60
2017-09-26T01:56:11.077Z,8.50
2017-09-26T01:58:39.530Z,8.50
2017-09-26T02:01:07.927Z,8.40
2017-09-26T02:03:35.740Z,8.40
2017-09-26T02:06:03.690Z,8.40
2017-09-26T02:08:31.285Z,8.30
2017-09-26T02:10:58.938Z,8.30
2017-09-26T02:13:26.562Z,8.30
2017-09-26T02:15:54.171Z,8.30
2017-09-26T02:18:21.771Z,8.30
2017-09-26T02:20:49.383Z,8.20
2017-09-26T02:23:17.354Z,8.30
2017-09-26T02:25:44.963Z,8.30
2017-09-26T02:28:12.934Z,8.30
2017-09-26T02:30:40.555Z,8.30
2017-09-26T02:33:08.139Z,8.30
2017-09-26T02:35:35.744Z,8.30
2017-09-26T02:38:03.331Z,8.20
2017-09-26T02:40:31.990Z,8.10
2017-09-26T02:42:59.614Z,8.10
2017-09-26T02:45:27.436Z,8.10
2017-09-26T02:47:55.068Z,8.10
2017-09-26T02:50:22.668Z,8.10
2017-09-26T02:52:51.076Z,8.00
2017-09-26T02:55:18.671Z,8.00
2017-09-26T02:57:46.558Z,8.00
2017-09-26T03:00:14.210Z,7.90
2017-09-26T03:02:43.222Z,7.90
2017-09-26T03:05:10.843Z,7.90
2017-09-26T03:07:38.503Z,7.90
2017-09-26T03:10:06.115Z,8.00
2017-09-26T03:12:34.446Z,8.00
2017-09-26T03:15:02.351Z,8.00
2017-09-26T03:17:29.991Z,8.00
2017-09-26T03:19:57.582Z,8.00
2017-09-26T03:22:25.991Z,8.00
2017-09-26T03:24:53.608Z,8.00
2017-09-26T03:27:21.419Z,8.00
2017-09-26T03:29:49.048Z,8.00
2017-09-26T03:32:17.694Z,7.90
2017-09-26T03:34:45.287Z,7.90
2017-09-26T03:37:13.648Z,7.90
2017-09-26T03:39:41.522Z,7.90
2017-09-26T03:42:09.124Z,7.80
2017-09-26T03:44:36.900Z,7.80
2017-09-26T03:47:04.508Z,7.70
2017-09-26T03:49:32.447Z,7.70
2017-09-26T03:52:00.798Z,7.60
2017-09-26T03:54:28.462Z,7.60
2017-09-26T03:56:56.087Z,7.60
2017-09-26T03:59:24.089Z,7.60
2017-09-26T04:01:51.702Z,7.60
2017-09-26T04:04:19.330Z,7.60
2017-09-26T04:06:47.206Z,7.60
2017-09-26T04:09:14.789Z,7.60
2017-09-26T04:11:42.519Z,7.60
2017-09-26T04:14:10.106Z,7.50
2017-09-26T04:16:37.691Z,7.50
2017-09-26T04:19:06.508Z,7.50
2017-09-26T04:21:34.903Z,7.50
2017-09-26T04:24:02.508Z,7.50
2017-09-26T04:26:30.930Z,7.50
2017-09-26T04:28:58.535Z,7.50
2017-09-26T04:31:26.119Z,7.50
2017-09-26T04:33:54.546Z,7.50
2017-09-26T04:36:22.858Z,7.40
2017-09-26T04:38:50.469Z,7.40
2017-09-26T04:41:18.076Z,7.40
2017-09-26T04:43:45.766Z,7.40
2017-09-26T04:46:13.406Z,7.40
2017-09-26T04:48:41.058Z,7.30
2017-09-26T04:51:08.895Z,7.30
2017-09-26T04:53:36.746Z,7.30
2017-09-26T04:56:04.329Z,7.30
2017-09-26T04:58:32.093Z,7.20
2017-09-26T05:01:00.460Z,7.20
2017-09-26T05:03:28.050Z,7.20
2017-09-26T05:05:55.790Z,7.20
2017-09-26T05:08:23.467Z,7.20
2017-09-26T05:10:52.262Z,7.20
2017-09-26T05:13:19.956Z,7.20
2017-09-26T05:15:47.601Z,7.20
2017-09-26T05:18:16.308Z,7.20
2017-09-26T05:20:43.939Z,7.10
2017-09-26T05:23:12.370Z,7.10
2017-09-26T05:25:40.020Z,7.10
2017-09-26T05:28:07.631Z,7.20
2017-09-26T05:30:35.646Z,7.20
2017-09-26T05:33:03.392Z,7.20
2017-09-26T05:35:31.011Z,7.20
2017-09-26T05:37:58.637Z,7.20
2017-09-26T05:40:26.235Z,7.20
2017-09-26T05:42:54.313Z,7.30
2017-09-26T05:45:21.923Z,7.40
2017-09-26T05:47:49.811Z,7.40
2017-09-26T05:50:17.423Z,7.40
2017-09-26T05:52:45.786Z,7.70
2017-09-26T05:55:13.394Z,7.70
2017-09-26T05:57:41.025Z,7.80
2017-09-26T06:00:09.446Z,7.90
2017-09-26T06:02:37.062Z,7.80
2017-09-26T06:05:06.195Z,8.00
2017-09-26T06:07:33.839Z,8.00
2017-09-26T06:10:01.839Z,8.20
2017-09-26T06:12:29.426Z,8.30
2017-09-26T06:14:57.042Z,8.50
2017-09-26T06:17:25.227Z,8.70
2017-09-26T06:19:52.802Z,8.90
2017-09-26T06:22:20.395Z,9.40
2017-09-26T06:24:48.766Z,11.50
2017-09-26T06:27:16.489Z,11.40
2017-09-26T06:29:44.067Z,12.40
2017-09-26T06:32:12.026Z,13.20
2017-09-26T06:34:39.620Z,14.10
2017-09-26T06:37:07.981Z,15.90
2017-09-26T06:39:35.604Z,15.90
2017-09-26T06:42:03.198Z,16.60
2017-09-26T06:44:30.810Z,16.90
2017-09-26T06:46:58.397Z,17.60
2017-09-26T06:49:26.302Z,17.60
2017-09-26T06:51:54.659Z,18.60
2017-09-26T06:54:22.994Z,18.90
2017-09-26T06:56:50.587Z,18.90
2017-09-26T06:59:18.173Z,19.20
2017-09-26T07:01:46.225Z,19.60
2017-09-26T07:04:13.866Z,20.10
2017-09-26T07:06:41.470Z,20.30
2017-09-26T07:09:09.074Z,20.80
2017-09-26T07:11:36.676Z,20.90
2017-09-26T07:14:04.266Z,21.60
2017-09-26T07:16:32.626Z,22.70
2017-09-26T07:19:00.224Z,22.70
2017-09-26T07:21:27.849Z,23.20
2017-09-26T07:23:56.503Z,24.00
2017-09-26T07:26:24.092Z,24.00
2017-09-26T07:28:51.683Z,24.10
2017-09-26T07:31:19.310Z,25.50
2017-09-26T07:33:46.890Z,26.00
2017-09-26T07:36:15.246Z,25.20
2017-09-26T07:38:42.841Z,25.20
2017-09-26T07:41:10.437Z,26.50
2017-09-26T07:43:38.026Z,28.20
2017-09-26T07:46:06.413Z,29.20
2017-09-26T07:48:34.793Z,28.30
2017-09-26T07:51:02.718Z,28.20
2017-09-26T07:53:30.694Z,29.00
2017-09-26T07:55:58.507Z,29.90
2017-09-26T07:58:26.866Z,30.40
2017-09-26T08:00:54.766Z,30.30
2017-09-26T08:03:22.697Z,28.80
2017-09-26T08:05:51.386Z,30.80
2017-09-26T08:08:20.453Z,29.90
2017-09-26T08:10:48.093Z,29.80
2017-09-26T08:13:15.683Z,31.20
2017-09-26T08:15:44.116Z,32.00
2017-09-26T08:18:11.816Z,32.00
2017-09-26T08:20:39.495Z,32.10
2017-09-26T08:23:07.144Z,31.50
2017-09-26T08:25:34.866Z,32.90
2017-09-26T08:28:03.420Z,33.20
2017-09-26T08:30:32.071Z,33.20
2017-09-26T08:32:59.675Z,33.20
2017-09-26T08:35:27.318Z,33.00
2017-09-26T08:37:55.704Z,33.20
2017-09-26T08:40:24.096Z,35.00
2017-09-26T08:42:51.983Z,34.90
2017-09-26T08:45:19.572Z,33.20
2017-09-26T08:47:47.466Z,33.70
2017-09-26T08:50:15.841Z,33.90
2017-09-26T08:55:38.856Z,35.40
2017-09-26T08:58:07.018Z,35.30
2017-09-26T09:00:34.654Z,35.70
2017-09-26T09:03:03.006Z,36.50
2017-09-26T09:05:33.154Z,36.50
2017-09-26T09:08:00.730Z,36.80
2017-09-26T09:13:03.014Z,35.70
2017-09-26T09:15:31.384Z,36.40
2017-09-26T09:17:58.978Z,36.40
2017-09-26T09:20:28.388Z,37.80
2017-09-26T09:22:55.990Z,39.10
2017-09-26T09:25:23.598Z,39.00
2017-09-26T09:27:51.214Z,37.60
2017-09-26T09:30:18.839Z,37.30
2017-09-26T09:32:46.474Z,37.20
2017-09-26T09:35:14.081Z,37.50
2017-09-26T09:37:42.050Z,38.80
2017-09-26T09:40:09.667Z,38.30
2017-09-26T09:55:28.614Z,37.90
2017-09-26T09:57:56.279Z,36.60
2017-09-26T10:00:24.245Z,38.40
2017-09-26T10:02:51.863Z,38.70
2017-09-26T10:05:20.382Z,40.80
2017-09-26T10:07:47.988Z,40.80
2017-09-26T10:10:15.557Z,40.50
2017-09-26T10:12:43.464Z,40.30
2017-09-26T10:15:11.089Z,40.50
2017-09-26T10:17:38.684Z,40.50
2017-09-26T10:20:06.298Z,39.50
2017-09-26T10:22:34.349Z,39.40
2017-09-26T10:25:02.050Z,39.20
2017-09-26T10:27:30.424Z,39.70
2017-09-26T10:29:58.860Z,40.70
2017-09-26T10:32:26.481Z,40.70
2017-09-26T10:34:54.171Z,40.50
2017-09-26T10:37:21.741Z,40.30
2017-09-26T10:39:49.402Z,40.50
2017-09-26T10:42:16.990Z,40.20
2017-09-26T10:44:45.050Z,40.50
2017-09-26T10:47:12.636Z,39.80
2017-09-26T10:49:40.234Z,39.90
2017-09-26T10:52:07.829Z,40.00
2017-09-26T10:54:35.415Z,40.30
2017-09-26T10:57:03.870Z,40.70
2017-09-26T10:59:31.466Z,41.40
2017-09-26T11:01:59.062Z,40.50
2017-09-26T11:04:27.580Z,40.70
2017-09-26T11:06:55.263Z,40.70
2017-09-26T11:09:22.954Z,41.00
2017-09-26T11:11:50.564Z,41.70
2017-09-26T11:14:18.424Z,41.80
2017-09-26T11:16:46.007Z,41.60
2017-09-26T11:19:14.530Z,42.50
2017-09-26T11:21:42.155Z,42.50
2017-09-26T11:24:09.786Z,43.30
2017-09-26T11:26:37.374Z,42.50
2017-09-26T11:29:05.237Z,41.70
2017-09-26T11:31:33.143Z,42.50
2017-09-26T11:34:00.743Z,43.20
2017-09-26T11:36:28.329Z,43.80
2017-09-26T11:38:56.026Z,43.60
2017-09-26T11:41:23.652Z,44.40
2017-09-26T11:43:51.299Z,42.50
2017-09-26T11:46:19.692Z,37.00
2017-09-26T11:48:47.320Z,36.90
2017-09-26T11:51:14.914Z,34.90
2017-09-26T11:53:42.848Z,33.90
2017-09-26T11:56:10.469Z,33.00
2017-09-26T11:58:38.080Z,32.10
2017-09-26T12:01:05.691Z,31.10
2017-09-26T12:03:33.370Z,30.60
2017-09-26T12:06:00.974Z,30.20
2017-09-26T12:08:29.335Z,29.10
2017-09-26T12:10:57.502Z,29.10
2017-09-26T12:13:30.759Z,28.90
2017-09-26T12:15:59.162Z,28.40
2017-09-26T12:18:27.183Z,28.20
2017-09-26T12:20:54.837Z,27.50
2017-09-26T12:23:23.225Z,26.30
2017-09-26T12:25:50.809Z,26.30
2017-09-26T12:28:18.407Z,25.90
2017-09-26T12:30:45.998Z,25.50
2017-09-26T12:33:13.915Z,25.50
2017-09-26T12:35:42.420Z,25.00
2017-09-26T12:38:10.820Z,24.40
2017-09-26T12:40:38.909Z,24.30
2017-09-26T12:43:06.483Z,24.20
2017-09-26T12:45:34.091Z,24.10
2017-09-26T12:48:01.671Z,24.00
2017-09-26T12:50:30.593Z,24.20
2017-09-26T12:52:58.178Z,24.10
2017-09-26T12:55:25.807Z,24.30
2017-09-26T12:57:53.406Z,24.40
2017-09-26T13:00:21.003Z,24.40
2017-09-26T13:02:49.502Z,24.70
2017-09-26T13:05:17.081Z,24.60
2017-09-26T13:07:44.993Z,24.40
2017-09-26T13:10:12.881Z,24.30
2017-09-26T13:12:41.267Z,24.60
2017-09-26T13:15:08.871Z,24.60
2017-09-26T13:17:36.487Z,24.80
2017-09-26T13:20:04.160Z,24.60
2017-09-26T13:22:31.746Z,24.90
2017-09-26T13:24:59.612Z,25.30
2017-09-26T13:27:27.735Z,25.10
2017-09-26T13:29:56.106Z,25.00
2017-09-26T13:32:24.687Z,25.20
2017-09-26T13:34:53.129Z,25.30
2017-09-26T13:37:20.734Z,25.30
2017-09-26T13:39:48.335Z,25.50
2017-09-26T13:42:16.199Z,25.50
2017-09-26T13:44:43.840Z,25.30
2017-09-26T13:47:11.441Z,25.10
2017-09-26T13:49:39.042Z,25.00
2017-09-26T13:52:07.376Z,24.90
2017-09-26T13:54:35.467Z,24.90
2017-09-26T13:57:03.166Z,24.90
2017-09-26T13:59:31.087Z,24.80
2017-09-26T14:01:59.434Z,24.50
2017-09-26T14:04:27.043Z,24.60
2017-09-26T14:06:54.623Z,24.40
2017-09-26T14:09:22.218Z,24.30
2017-09-26T14:11:49.845Z,24.30
2017-09-26T14:14:17.438Z,24.20
2017-09-26T14:16:45.124Z,24.00
2017-09-26T14:19:12.761Z,24.10
2017-09-26T14:21:40.354Z,24.00
2017-09-26T14:24:08.310Z,23.80
2017-09-26T14:26:35.901Z,23.80
2017-09-26T14:29:04.302Z,23.60
2017-09-26T14:31:31.920Z,23.60
2017-09-26T14:33:59.519Z,23.70
2017-09-26T14:36:27.870Z,23.50
2017-09-26T14:38:56.278Z,23.20
2017-09-26T14:41:23.878Z,23.20
2017-09-26T14:43:51.488Z,23.00
2017-09-26T14:46:19.852Z,22.90
2017-09-26T14:48:48.285Z,22.90
2017-09-26T14:51:16.165Z,22.80
2017-09-26T14:53:44.182Z,22.80
2017-09-26T14:56:14.787Z,22.70
2017-09-26T14:58:43.679Z,22.70
2017-09-26T15:01:11.354Z,22.60
2017-09-26T15:03:39.691Z,22.90
2017-09-26T15:06:07.654Z,23.00
2017-09-26T15:08:35.255Z,23.10
2017-09-26T15:11:03.692Z,23.20
2017-09-26T15:13:31.304Z,23.00
2017-09-26T15:15:59.762Z,22.40
2017-09-26T15:18:29.035Z,22.00
2017-09-26T15:20:56.652Z,22.00
2017-09-26T15:23:25.016Z,21.90
2017-09-26T15:25:53.398Z,21.90
2017-09-26T15:28:22.039Z,21.90
2017-09-26T15:30:49.697Z,21.80
2017-09-26T15:33:17.306Z,21.80
2017-09-26T15:35:44.920Z,21.80
2017-09-26T15:38:12.691Z,21.80
2017-09-26T15:40:40.332Z,21.60
2017-09-26T15:43:07.910Z,21.50
2017-09-26T15:45:35.955Z,21.40
2017-09-26T15:48:03.642Z,21.30
2017-09-26T15:50:31.243Z,21.10
2017-09-26T15:52:58.874Z,20.90
2017-09-26T15:55:26.493Z,20.80
2017-09-26T15:57:54.394Z,20.70
2017-09-26T16:00:21.999Z,20.60
2017-09-26T16:02:49.631Z,20.50
2017-09-26T16:05:17.256Z,20.30
2017-09-26T16:07:44.859Z,20.30
2017-09-26T16:10:12.494Z,20.30
2017-09-26T16:12:40.099Z,20.20
2017-09-26T16:15:08.032Z,20.10
2017-09-26T16:17:35.684Z,20.00
2017-09-26T16:20:03.292Z,20.00
2017-09-26T16:22:30.897Z,20.00
2017-09-26T16:24:58.484Z,19.80
2017-09-26T16:27:26.105Z,19.70
2017-09-26T16:29:53.713Z,19.70
2017-09-26T16:32:22.572Z,19.60
2017-09-26T16:34:50.156Z,19.60
2017-09-26T16:37:17.790Z,19.50
2017-09-26T16:39:45.425Z,19.40
2017-09-26T16:42:13.038Z,19.20
2017-09-26T16:44:40.676Z,19.00
2017-09-26T16:47:08.328Z,18.90
2017-09-26T16:49:36.222Z,18.80
2017-09-26T16:52:03.828Z,18.60
2017-09-26T16:54:31.443Z,18.50
2017-09-26T16:56:59.088Z,18.30
2017-09-26T16:59:26.785Z,18.20
2017-09-26T17:01:55.184Z,17.80
2017-09-26T17:04:22.779Z,17.80
2017-09-26T17:06:50.669Z,17.60
2017-09-26T17:09:18.347Z,17.40
2017-09-26T17:11:46.730Z,16.90
2017-09-26T17:14:15.128Z,16.70
2017-09-26T17:16:42.788Z,16.70
2017-09-26T17:19:10.382Z,16.70
2017-09-26T17:21:37.980Z,16.50
2017-09-26T17:24:06.628Z,16.10
2017-09-26T17:26:34.250Z,16.10
2017-09-26T17:29:01.847Z,15.90
2017-09-26T17:31:29.522Z,15.80
2017-09-26T17:33:57.166Z,15.80
2017-09-26T17:36:24.835Z,15.70
2017-09-26T17:38:52.474Z,15.50
2017-09-26T17:41:20.099Z,15.40
2017-09-26T17:43:48.475Z,15.20
2017-09-26T17:46:17.241Z,15.10
2017-09-26T17:48:45.026Z,15.10
2017-09-26T17:51:14.420Z,15.00
2017-09-26T17:53:43.003Z,14.90
2017-09-26T17:56:10.682Z,14.90
2017-09-26T17:58:39.269Z,14.80
2017-09-26T18:01:06.927Z,14.80
2017-09-26T18:03:34.854Z,14.80
2017-09-26T18:06:02.449Z,14.70
2017-09-26T18:08:30.868Z,14.60
2017-09-26T18:10:58.594Z,14.50
2017-09-26T18:13:26.970Z,14.50
2017-09-26T18:15:55.377Z,14.40
2017-09-26T18:18:23.035Z,14.40
2017-09-26T18:20:51.154Z,14.40
2017-09-26T18:23:18.774Z,14.40
2017-09-26T18:25:46.409Z,14.40
2017-09-26T18:31:17.941Z,14.30
2017-09-26T18:33:46.412Z,14.40
2017-09-26T18:36:14.022Z,14.40
2017-09-26T18:38:41.691Z,14.40
2017-09-26T18:41:09.350Z,14.40
2017-09-26T18:43:37.313Z,14.40
2017-09-26T18:46:04.978Z,14.40
2017-09-26T18:48:32.589Z,14.40
2017-09-26T18:51:00.983Z,14.40
2017-09-26T18:53:29.439Z,14.30
2017-09-26T18:55:57.834Z,14.30
2017-09-26T18:58:26.949Z,14.30
2017-09-26T19:00:55.079Z,14.30
2017-09-26T19:03:22.748Z,14.30
2017-09-26T19:05:50.380Z,14.30
2017-09-26T19:08:18.010Z,14.30
2017-09-26T19:10:45.639Z,14.30
2017-09-26T19:13:14.040Z,14.20
2017-09-26T19:15:41.679Z,14.20
2017-09-26T19:18:10.569Z,14.10
2017-09-26T19:20:38.933Z,14.10
2017-09-26T19:23:06.592Z,14.10
2017-09-26T19:25:34.277Z,14.10
2017-09-26T19:28:02.690Z,14.10
2017-09-26T19:30:30.356Z,14.10
2017-09-26T19:32:57.945Z,14.10
2017-09-26T19:35:26.123Z,14.10
2017-09-26T19:37:53.750Z,14.00
2017-09-26T19:40:21.391Z,14.10
2017-09-26T19:42:49.082Z,14.00
2017-09-26T19:45:16.673Z,14.00
2017-09-26T19:47:44.389Z,14.00
2017-09-26T19:50:11.997Z,13.90
2017-09-26T19:52:40.772Z,13.90
2017-09-26T19:55:08.366Z,13.90
2017-09-26T19:57:36.750Z,13.90
2017-09-26T20:00:05.153Z,13.90
2017-09-26T20:02:32.734Z,13.80
2017-09-26T20:05:00.382Z,13.90
2017-09-26T20:07:28.009Z,13.90
2017-09-26T20:09:56.858Z,14.00
2017-09-26T20:12:24.504Z,13.90
2017-09-26T20:14:52.121Z,13.90
2017-09-26T20:17:19.842Z,13.90
2017-09-26T20:19:47.578Z,13.90
2017-09-26T20:22:15.207Z,13.90
2017-09-26T20:24:43.590Z,13.80
2017-09-26T20:27:11.517Z,13.90
2017-09-26T20:29:39.187Z,13.80
2017-09-26T20:32:06.772Z,13.80
2017-09-26T20:34:34.384Z,13.90
2017-09-26T20:37:02.026Z,13.80
2017-09-26T20:39:29.968Z,13.90
2017-09-26T20:41:57.590Z,13.90
2017-09-26T20:44:25.235Z,13.80
2017-09-26T20:46:52.884Z,13.80
2017-09-26T20:49:20.577Z,13.80
2017-09-26T20:51:48.199Z,13.80
2017-09-26T20:54:15.861Z,13.80
2017-09-26T20:56:43.777Z,13.80
2017-09-26T20:59:12.175Z,13.80
2017-09-26T21:01:40.558Z,13.80
2017-09-26T21:04:08.224Z,13.80
2017-09-26T21:06:35.923Z,13.80
2017-09-26T21:09:03.569Z,13.80
2017-09-26T21:11:31.182Z,13.80
2017-09-26T21:13:59.877Z,13.70
2017-09-26T21:16:28.253Z,13.70
2017-09-26T21:18:56.668Z,13.60
2017-09-26T21:21:24.336Z,13.60
2017-09-26T21:23:51.988Z,13.60
2017-09-26T21:26:19.616Z,13.60
2017-09-26T21:28:47.263Z,13.50
2017-09-26T21:31:15.215Z,13.50
2017-09-26T21:33:42.857Z,13.40
2017-09-26T21:36:10.490Z,13.40
2017-09-26T21:38:38.114Z,13.30
2017-09-26T21:41:05.703Z,13.20
2017-09-26T21:43:33.302Z,13.20
2017-09-26T21:46:00.883Z,13.10
2017-09-26T21:48:28.669Z,13.10
2017-09-26T21:50:57.062Z,12.90
2017-09-26T21:53:24.651Z,12.90
2017-09-26T21:55:52.328Z,12.90
2017-09-26T21:58:19.920Z,12.80
2017-09-26T22:00:47.859Z,12.70
2017-09-26T22:03:15.504Z,12.70
2017-09-26T22:05:43.380Z,12.50
2017-09-26T22:08:10.967Z,12.50
2017-09-26T22:10:39.334Z,12.20
2017-09-26T22:13:06.959Z,12.20
2017-09-26T22:15:34.537Z,12.10
2017-09-26T22:18:02.138Z,12.10
2017-09-26T22:20:30.486Z,11.90
2017-09-26T22:22:59.177Z,11.90
2017-09-26T22:25:26.790Z,11.80
2017-09-26T22:27:54.413Z,11.80
2017-09-26T22:30:22.020Z,11.70
2017-09-26T22:32:49.626Z,11.70
2017-09-26T22:35:17.430Z,11.60
2017-09-26T22:37:45.035Z,11.60
2017-09-26T22:40:13.003Z,11.60
2017-09-26T22:42:40.606Z,11.50
2017-09-26T22:45:08.951Z,11.50
2017-09-26T22:47:36.550Z,11.50
2017-09-26T22:50:04.172Z,11.50
2017-09-26T22:52:31.771Z,11.50
2017-09-26T22:54:59.374Z,11.40
2017-09-26T22:57:27.254Z,11.40
2017-09-26T22:59:54.846Z,11.30
2017-09-26T23:02:23.221Z,11.20
2017-09-26T23:04:51.642Z,11.10
2017-09-26T23:07:19.249Z,11.10
2017-09-26T23:09:47.914Z,11.00
2017-09-26T23:12:15.501Z,11.00
2017-09-26T23:14:43.842Z,10.90
2017-09-26T23:17:11.466Z,10.80
2017-09-26T23:19:39.066Z,10.80
2017-09-26T23:22:06.651Z,10.80
2017-09-26T23:24:34.240Z,10.70
2017-09-26T23:27:02.122Z,10.70
2017-09-26T23:29:29.711Z,10.70
2017-09-26T23:31:57.330Z,10.60
2017-09-26T23:34:24.934Z,10.60
2017-09-26T23:36:52.510Z,10.60
2017-09-26T23:39:20.111Z,10.50
2017-09-26T23:41:47.786Z,10.50
2017-09-26T23:44:15.681Z,10.40
2017-09-26T23:46:43.259Z,10.40
2017-09-26T23:49:10.842Z,10.30
2017-09-26T23:51:39.248Z,10.20
2017-09-26T23:54:06.853Z,10.20
2017-09-26T23:56:34.703Z,10.10
2017-09-26T23:59:02.378Z,10.10
